createdAt,value
2023-03-02T00:01:55.673Z,-5.82
2023-03-02T00:04:27.668Z,-5.75
2023-03-02T00:06:58.293Z,-5.73
2023-03-02T00:09:27.054Z,-5.63
2023-03-02T00:11:55.471Z,-5.61
2023-03-02T00:14:24.386Z,-5.55
2023-03-02T00:16:53.288Z,-5.50
2023-03-02T00:19:21.815Z,-5.42
2023-03-02T00:21:51.931Z,-5.33
2023-03-02T00:24:21.732Z,-5.33
2023-03-02T00:26:50.211Z,-5.28
2023-03-02T00:29:18.690Z,-5.27
2023-03-02T00:31:48.695Z,-5.27
2023-03-02T00:34:17.625Z,-5.31
2023-03-02T00:36:47.873Z,-5.21
2023-03-02T00:39:20.343Z,-5.27
2023-03-02T00:41:49.753Z,-5.30
2023-03-02T00:44:19.733Z,-5.28
2023-03-02T00:46:48.292Z,-5.24
2023-03-02T00:49:16.704Z,-5.23
2023-03-02T00:51:45.220Z,-5.25
2023-03-02T00:54:14.838Z,-5.29
2023-03-02T00:56:45.044Z,-5.32
2023-03-02T00:59:26.529Z,-5.37
2023-03-02T01:02:23.737Z,-5.45
2023-03-02T01:04:54.522Z,-5.36
2023-03-02T01:07:25.031Z,-5.36
2023-03-02T01:09:53.972Z,-5.49
2023-03-02T01:12:24.249Z,-5.55
2023-03-02T01:14:52.865Z,-5.55
2023-03-02T01:17:25.455Z,-5.58
2023-03-02T01:19:54.395Z,-5.53
2023-03-02T01:22:22.965Z,-5.50
2023-03-02T01:24:52.300Z,-5.44
2023-03-02T01:27:21.125Z,-5.39
2023-03-02T01:29:51.551Z,-5.39
2023-03-02T01:32:20.040Z,-5.42
2023-03-02T01:34:51.659Z,-5.45
2023-03-02T01:37:21.133Z,-5.56
2023-03-02T01:39:50.361Z,-5.63
2023-03-02T01:42:19.698Z,-5.73
2023-03-02T01:44:50.864Z,-5.69
2023-03-02T01:47:21.880Z,-5.74
2023-03-02T01:50:00.620Z,-5.68
2023-03-02T01:52:33.149Z,-5.64
2023-03-02T01:55:03.641Z,-5.65
2023-03-02T01:57:34.862Z,-5.63
2023-03-02T02:00:08.736Z,-5.72
2023-03-02T02:02:42.666Z,-5.64
2023-03-02T02:05:14.623Z,-5.69
2023-03-02T02:07:43.594Z,-5.66
2023-03-02T02:10:13.437Z,-5.72
2023-03-02T02:12:42.628Z,-5.68
2023-03-02T02:15:32.357Z,-5.72
2023-03-02T02:18:00.896Z,-5.75
2023-03-02T02:20:34.123Z,-5.69
2023-03-02T02:23:11.201Z,-5.80
2023-03-02T02:25:46.614Z,-5.78
2023-03-02T02:28:20.328Z,-5.80
2023-03-02T02:30:52.681Z,-5.82
2023-03-02T02:33:26.065Z,-5.85
2023-03-02T02:36:01.658Z,-5.88
2023-03-02T02:38:31.480Z,-5.88
2023-03-02T02:41:01.941Z,-5.79
2023-03-02T02:43:35.594Z,-5.85
2023-03-02T02:46:04.429Z,-5.86
2023-03-02T02:48:33.422Z,-5.85
2023-03-02T02:51:03.381Z,-5.84
2023-03-02T02:53:37.121Z,-5.89
2023-03-02T02:56:06.627Z,-5.87
2023-03-02T02:58:40.857Z,-5.92
2023-03-02T03:01:09.748Z,-5.89
2023-03-02T03:03:40.415Z,-5.92
2023-03-02T03:06:18.504Z,-5.90
2023-03-02T03:09:00.499Z,-6.00
2023-03-02T03:11:44.680Z,-5.96
2023-03-02T03:14:16.630Z,-5.93
2023-03-02T03:16:50.913Z,-5.94
2023-03-02T03:19:21.933Z,-5.92
2023-03-02T03:21:52.618Z,-5.87
2023-03-02T03:24:22.796Z,-5.88
2023-03-02T03:26:52.124Z,-5.88
2023-03-02T03:29:24.357Z,-5.85
2023-03-02T03:31:54.936Z,-5.88
2023-03-02T03:34:25.319Z,-5.88
2023-03-02T03:36:54.145Z,-5.92
2023-03-02T03:39:24.466Z,-6.01
2023-03-02T03:41:53.202Z,-6.02
2023-03-02T03:44:24.291Z,-6.08
2023-03-02T03:47:02.347Z,-6.07
2023-03-02T03:49:31.242Z,-6.08
2023-03-02T03:51:59.714Z,-6.12
2023-03-02T03:54:28.182Z,-6.11
2023-03-02T03:56:56.845Z,-6.12
2023-03-02T03:59:28.218Z,-6.06
2023-03-02T04:02:04.208Z,-6.02
2023-03-02T04:04:42.693Z,-5.99
2023-03-02T04:07:17.055Z,-5.98
2023-03-02T04:09:47.030Z,-6.02
2023-03-02T04:12:16.828Z,-6.01
2023-03-02T04:14:52.523Z,-6.00
2023-03-02T04:17:21.251Z,-5.97
2023-03-02T04:19:52.124Z,-5.97
2023-03-02T04:22:21.488Z,-5.91
2023-03-02T04:24:51.901Z,-5.86
2023-03-02T04:27:21.400Z,-5.88
2023-03-02T04:29:54.717Z,-5.83
2023-03-02T04:32:23.653Z,-5.81
2023-03-02T04:34:58.299Z,-5.80
2023-03-02T04:37:28.077Z,-5.83
2023-03-02T04:39:56.422Z,-5.81
2023-03-02T04:42:26.795Z,-5.77
2023-03-02T04:44:56.923Z,-5.72
2023-03-02T04:47:25.340Z,-5.74
2023-03-02T04:49:57.090Z,-5.72
2023-03-02T04:52:29.837Z,-5.69
2023-03-02T04:54:58.622Z,-5.76
2023-03-02T04:57:26.953Z,-5.76
2023-03-02T04:59:56.790Z,-5.73
2023-03-02T05:02:25.316Z,-5.70
2023-03-02T05:04:55.362Z,-5.69
2023-03-02T05:07:24.002Z,-5.66
2023-03-02T05:09:52.765Z,-5.75
2023-03-02T05:12:22.216Z,-5.70
2023-03-02T05:14:50.809Z,-5.69
2023-03-02T05:17:20.924Z,-5.71
2023-03-02T05:19:49.489Z,-5.77
2023-03-02T05:22:17.784Z,-5.85
2023-03-02T05:24:46.381Z,-5.81
2023-03-02T05:27:14.877Z,-5.80
2023-03-02T05:29:43.401Z,-5.82
2023-03-02T05:32:12.766Z,-5.76
2023-03-02T05:34:42.714Z,-5.85
2023-03-02T05:37:11.476Z,-5.84
2023-03-02T05:39:39.891Z,-5.90
2023-03-02T05:42:08.585Z,-5.84
2023-03-02T05:44:37.468Z,-5.80
2023-03-02T05:47:06.293Z,-5.76
2023-03-02T05:49:35.347Z,-5.71
2023-03-02T05:52:05.079Z,-5.66
2023-03-02T05:54:34.278Z,-5.59
2023-03-02T05:57:04.095Z,-5.54
2023-03-02T05:59:32.442Z,-5.47
2023-03-02T06:02:01.588Z,-5.55
2023-03-02T06:04:30.067Z,-5.52
2023-03-02T06:06:58.640Z,-5.48
2023-03-02T06:09:28.591Z,-5.35
2023-03-02T06:11:56.940Z,-5.33
2023-03-02T06:14:25.615Z,-5.18
2023-03-02T06:16:54.199Z,-5.04
2023-03-02T06:19:23.213Z,-4.95
2023-03-02T06:21:51.598Z,-5.01
2023-03-02T06:24:20.441Z,-4.93
2023-03-02T06:26:50.400Z,-4.84
2023-03-02T06:29:18.867Z,-4.91
2023-03-02T06:31:47.335Z,-5.04
2023-03-02T06:34:16.146Z,-4.89
2023-03-02T06:36:44.855Z,-5.14
2023-03-02T06:39:16.920Z,-4.79
2023-03-02T06:41:46.423Z,-4.65
2023-03-02T06:44:17.484Z,-4.98
2023-03-02T06:46:46.581Z,-4.89
2023-03-02T06:49:14.882Z,-4.92
2023-03-02T06:51:43.692Z,-5.09
2023-03-02T06:54:12.285Z,-5.08
2023-03-02T06:56:41.204Z,-4.95
2023-03-02T06:59:09.980Z,-4.81
2023-03-02T07:01:40.182Z,-4.70
2023-03-02T07:04:08.734Z,-4.53
2023-03-02T07:06:37.637Z,-4.67
2023-03-02T07:09:06.351Z,-4.68
2023-03-02T07:11:35.141Z,-4.66
2023-03-02T07:14:06.287Z,-4.55
2023-03-02T07:16:35.179Z,-4.26
2023-03-02T07:19:05.015Z,-4.36
2023-03-02T07:21:34.154Z,-4.27
2023-03-02T07:24:02.838Z,-4.26
2023-03-02T07:26:32.059Z,-4.25
2023-03-02T07:29:01.174Z,-4.22
2023-03-02T07:31:29.986Z,-4.20
2023-03-02T07:33:59.847Z,-4.04
2023-03-02T07:36:32.433Z,-4.13
2023-03-02T07:39:00.909Z,-4.25
2023-03-02T07:41:29.600Z,-4.02
2023-03-02T07:43:58.346Z,-3.93
2023-03-02T07:46:26.972Z,-3.77
2023-03-02T07:48:55.562Z,-3.85
2023-03-02T07:51:24.168Z,-3.90
2023-03-02T07:53:54.215Z,-4.05
2023-03-02T07:56:23.016Z,-4.18
2023-03-02T07:58:51.828Z,-4.13
2023-03-02T08:01:20.381Z,-4.30
2023-03-02T08:03:48.802Z,-4.20
2023-03-02T08:06:17.419Z,-3.91
2023-03-02T08:08:46.243Z,-3.70
2023-03-02T08:11:18.816Z,-3.55
2023-03-02T08:13:47.795Z,-3.47
2023-03-02T08:16:17.061Z,-3.37
2023-03-02T08:18:45.843Z,-3.73
2023-03-02T08:21:15.830Z,-3.81
2023-03-02T08:23:47.994Z,-3.74
2023-03-02T08:26:19.085Z,-3.73
2023-03-02T08:28:48.443Z,-3.62
2023-03-02T08:31:17.181Z,-3.43
2023-03-02T08:33:47.416Z,-3.35
2023-03-02T08:36:17.245Z,-3.40
2023-03-02T08:38:46.564Z,-3.37
2023-03-02T08:41:16.971Z,-3.44
2023-03-02T08:43:46.957Z,-3.30
2023-03-02T08:46:17.154Z,-3.30
2023-03-02T08:48:51.449Z,-3.43
2023-03-02T08:51:21.631Z,-3.59
2023-03-02T08:53:51.634Z,-3.73
2023-03-02T08:56:22.015Z,-3.36
2023-03-02T08:58:53.157Z,-3.36
2023-03-02T09:01:33.371Z,-3.53
2023-03-02T09:04:03.507Z,-3.81
2023-03-02T09:06:34.162Z,-3.95
2023-03-02T09:09:03.372Z,-3.98
2023-03-02T09:11:32.687Z,-3.90
2023-03-02T09:14:03.396Z,-3.74
2023-03-02T09:16:32.205Z,-3.70
2023-03-02T09:19:00.987Z,-3.63
2023-03-02T09:21:32.089Z,-3.42
2023-03-02T09:24:02.788Z,-3.37
2023-03-02T09:26:31.212Z,-3.50
2023-03-02T09:28:59.912Z,-3.41
2023-03-02T09:31:30.559Z,-3.63
2023-03-02T09:33:59.182Z,-3.82
2023-03-02T09:36:28.326Z,-3.76
2023-03-02T09:38:59.125Z,-3.50
2023-03-02T09:41:46.794Z,-3.37
2023-03-02T09:44:33.002Z,-2.86
2023-03-02T09:47:05.414Z,-2.69
2023-03-02T09:49:48.342Z,-3.04
2023-03-02T09:52:28.497Z,-3.27
2023-03-02T09:54:57.248Z,-3.25
2023-03-02T09:57:29.738Z,-3.28
2023-03-02T10:00:09.535Z,-3.32
2023-03-02T10:02:50.292Z,-2.86
2023-03-02T10:05:23.439Z,-3.09
2023-03-02T10:07:52.481Z,-3.02
2023-03-02T10:10:27.799Z,-2.98
2023-03-02T10:13:15.756Z,-3.07
2023-03-02T10:15:50.461Z,-3.19
2023-03-02T10:18:24.337Z,-3.16
2023-03-02T10:20:56.183Z,-2.81
2023-03-02T10:23:34.446Z,-2.68
2023-03-02T10:26:11.169Z,-2.76
2023-03-02T10:28:43.872Z,-2.63
2023-03-02T10:31:21.171Z,-3.01
2023-03-02T10:33:51.582Z,-2.76
2023-03-02T10:36:24.224Z,-2.99
2023-03-02T10:38:53.592Z,-3.17
2023-03-02T10:41:26.752Z,-2.94
2023-03-02T10:43:57.652Z,-3.12
2023-03-02T10:46:26.244Z,-2.83
2023-03-02T10:49:01.455Z,-3.18
2023-03-02T10:51:32.077Z,-3.20
2023-03-02T10:54:08.454Z,-3.28
2023-03-02T10:56:37.112Z,-3.20
2023-03-02T10:59:16.458Z,-2.76
2023-03-02T11:01:45.236Z,-2.82
2023-03-02T11:04:17.858Z,-3.11
2023-03-02T11:06:46.354Z,-3.09
2023-03-02T11:09:15.548Z,-3.01
2023-03-02T11:11:59.212Z,-3.05
2023-03-02T11:14:28.184Z,-3.15
2023-03-02T11:17:01.373Z,-3.06
2023-03-02T11:19:36.387Z,-3.00
2023-03-02T11:22:14.015Z,-2.41
2023-03-02T11:24:44.562Z,-2.68
2023-03-02T11:27:16.470Z,-2.74
2023-03-02T11:29:48.367Z,-2.94
2023-03-02T11:32:20.025Z,-2.63
2023-03-02T11:34:52.357Z,-2.51
2023-03-02T11:37:24.937Z,-2.17
2023-03-02T11:40:10.082Z,-2.23
2023-03-02T11:42:38.900Z,-2.22
2023-03-02T11:45:22.014Z,-2.09
2023-03-02T11:48:02.104Z,-2.01
2023-03-02T11:50:34.529Z,-2.05
2023-03-02T11:53:06.404Z,-2.28
2023-03-02T11:55:41.590Z,-2.21
2023-03-02T11:58:18.476Z,-2.12
2023-03-02T12:00:48.301Z,-2.54
2023-03-02T12:03:25.509Z,-2.50
2023-03-02T12:06:05.242Z,-2.64
2023-03-02T12:08:40.522Z,-2.39
2023-03-02T12:11:10.608Z,-2.82
2023-03-02T12:13:39.979Z,-2.83
2023-03-02T12:16:21.539Z,-2.58
2023-03-02T12:18:50.550Z,-2.57
2023-03-02T12:21:22.058Z,-2.59
2023-03-02T12:24:00.323Z,-2.61
2023-03-02T12:26:35.821Z,-2.44
2023-03-02T12:29:08.704Z,-2.42
2023-03-02T12:31:49.998Z,-2.55
2023-03-02T12:34:38.012Z,-2.65
2023-03-02T12:37:16.854Z,-2.79
2023-03-02T12:40:27.809Z,-2.82
2023-03-02T12:43:13.783Z,-2.87
2023-03-02T12:45:51.322Z,-3.02
2023-03-02T12:48:27.912Z,-2.84
2023-03-02T12:51:02.220Z,-2.84
2023-03-02T12:53:32.436Z,-2.77
2023-03-02T12:56:01.813Z,-3.01
2023-03-02T12:58:32.719Z,-3.00
2023-03-02T13:01:03.186Z,-3.06
2023-03-02T13:03:33.450Z,-2.88
2023-03-02T13:06:03.545Z,-2.85
2023-03-02T13:08:34.965Z,-2.71
2023-03-02T13:11:04.200Z,-2.85
2023-03-02T13:13:38.579Z,-2.73
2023-03-02T13:16:08.727Z,-2.87
2023-03-02T13:18:39.758Z,-2.93
2023-03-02T13:21:11.562Z,-2.97
2023-03-02T13:23:46.808Z,-2.95
2023-03-02T13:26:26.835Z,-2.96
2023-03-02T13:29:07.255Z,-2.92
2023-03-02T13:31:38.850Z,-3.09
2023-03-02T13:34:07.588Z,-3.21
2023-03-02T13:36:39.401Z,-3.28
2023-03-02T13:39:20.935Z,-3.24
2023-03-02T13:41:56.859Z,-3.23
2023-03-02T13:44:29.287Z,-3.26
2023-03-02T13:46:58.123Z,-3.28
2023-03-02T13:49:31.083Z,-3.20
2023-03-02T13:52:03.342Z,-3.27
2023-03-02T13:54:35.816Z,-3.24
2023-03-02T13:57:05.456Z,-3.28
2023-03-02T13:59:36.639Z,-3.29
2023-03-02T14:02:07.905Z,-3.29
2023-03-02T14:04:36.791Z,-3.36
2023-03-02T14:07:06.461Z,-3.34
2023-03-02T14:09:39.182Z,-3.34
2023-03-02T14:12:08.274Z,-3.41
2023-03-02T14:14:39.151Z,-3.37
2023-03-02T14:17:13.755Z,-3.37
2023-03-02T14:19:42.518Z,-3.34
2023-03-02T14:22:12.030Z,-3.33
2023-03-02T14:24:42.498Z,-3.35
2023-03-02T14:27:14.345Z,-3.38
2023-03-02T14:29:45.097Z,-3.37
2023-03-02T14:32:14.746Z,-3.41
2023-03-02T14:34:43.226Z,-3.44
2023-03-02T14:37:14.832Z,-3.37
2023-03-02T14:39:48.527Z,-3.37
2023-03-02T14:42:20.950Z,-3.36
2023-03-02T14:44:50.917Z,-3.39
2023-03-02T14:47:19.963Z,-3.41
2023-03-02T14:49:50.268Z,-3.42
2023-03-02T14:52:23.697Z,-3.37
2023-03-02T14:54:56.711Z,-3.45
2023-03-02T14:57:28.133Z,-3.44
2023-03-02T15:00:00.038Z,-3.60
2023-03-02T15:02:29.215Z,-3.56
2023-03-02T15:04:58.496Z,-3.67
2023-03-02T15:07:28.183Z,-3.66
2023-03-02T15:09:58.786Z,-3.62
2023-03-02T15:12:27.580Z,-3.64
2023-03-02T15:14:56.586Z,-3.58
2023-03-02T15:17:25.050Z,-3.55
2023-03-02T15:19:53.773Z,-3.57
2023-03-02T15:22:23.130Z,-3.59
2023-03-02T15:24:51.616Z,-3.55
2023-03-02T15:27:23.702Z,-3.47
2023-03-02T15:29:52.402Z,-3.54
2023-03-02T15:32:21.487Z,-3.56
2023-03-02T15:34:50.194Z,-3.49
2023-03-02T15:37:18.653Z,-3.57
2023-03-02T15:39:47.281Z,-3.50
2023-03-02T15:42:15.674Z,-3.50
2023-03-02T15:44:45.807Z,-3.58
2023-03-02T15:47:14.279Z,-3.47
2023-03-02T15:49:42.875Z,-3.48
2023-03-02T15:52:17.004Z,-3.50
2023-03-02T15:54:45.810Z,-3.57
2023-03-02T15:57:14.197Z,-3.54
2023-03-02T15:59:43.731Z,-3.44
2023-03-02T16:02:13.803Z,-3.46
2023-03-02T16:04:42.392Z,-3.43
2023-03-02T16:07:11.017Z,-3.47
2023-03-02T16:09:42.015Z,-3.40
2023-03-02T16:12:10.694Z,-3.36
2023-03-02T16:14:39.356Z,-3.37
2023-03-02T16:17:08.795Z,-3.47
2023-03-02T16:19:38.938Z,-3.41
2023-03-02T16:22:07.673Z,-3.54
2023-03-02T16:24:36.373Z,-3.50
2023-03-02T16:27:05.302Z,-3.55
2023-03-02T16:29:33.665Z,-3.62
2023-03-02T16:32:02.448Z,-3.62
2023-03-02T16:34:30.921Z,-3.60
2023-03-02T16:37:00.848Z,-3.59
2023-03-02T16:39:29.886Z,-3.58
2023-03-02T16:41:58.600Z,-3.45
2023-03-02T16:44:27.136Z,-3.49
2023-03-02T16:46:57.320Z,-3.51
2023-03-02T16:49:27.169Z,-3.50
2023-03-02T16:51:58.301Z,-3.40
2023-03-02T16:54:29.015Z,-3.36
2023-03-02T16:56:57.788Z,-3.38
2023-03-02T16:59:26.492Z,-3.43
2023-03-02T17:01:55.056Z,-3.38
2023-03-02T17:04:23.570Z,-3.42
2023-03-02T17:07:00.574Z,-3.39
2023-03-02T17:09:31.883Z,-3.40
2023-03-02T17:12:01.870Z,-3.38
2023-03-02T17:14:30.440Z,-3.31
2023-03-02T17:16:59.174Z,-3.30
2023-03-02T17:19:29.784Z,-3.28
2023-03-02T17:21:59.539Z,-3.34
2023-03-02T17:24:28.328Z,-3.31
2023-03-02T17:26:58.481Z,-3.28
2023-03-02T17:29:27.378Z,-3.23
2023-03-02T17:31:56.057Z,-3.21
2023-03-02T17:34:28.805Z,-3.18
2023-03-02T17:36:57.304Z,-3.21
2023-03-02T17:39:25.989Z,-3.18
2023-03-02T17:41:55.685Z,-3.16
2023-03-02T17:44:25.584Z,-3.18
2023-03-02T17:46:54.798Z,-3.11
2023-03-02T17:49:23.799Z,-3.15
2023-03-02T17:51:52.407Z,-3.10
2023-03-02T17:54:20.918Z,-3.09
2023-03-02T17:56:49.514Z,-3.05
2023-03-02T17:59:17.964Z,-3.03
2023-03-02T18:01:47.899Z,-3.05
2023-03-02T18:04:16.897Z,-3.03
2023-03-02T18:06:45.729Z,-3.04
2023-03-02T18:09:14.098Z,-3.10
2023-03-02T18:11:42.721Z,-3.12
2023-03-02T18:14:16.374Z,-3.17
2023-03-02T18:16:44.915Z,-3.12
2023-03-02T18:19:15.530Z,-3.10
2023-03-02T18:21:45.807Z,-3.06
2023-03-02T18:24:14.159Z,-3.04
2023-03-02T18:26:42.924Z,-3.10
2023-03-02T18:29:11.640Z,-3.02
2023-03-02T18:31:40.521Z,-2.99
2023-03-02T18:34:09.065Z,-2.97
2023-03-02T18:36:39.032Z,-2.90
2023-03-02T18:39:07.687Z,-2.91
2023-03-02T18:41:36.148Z,-2.91
2023-03-02T18:44:04.823Z,-2.85
2023-03-02T18:46:34.580Z,-2.86
2023-03-02T18:49:04.557Z,-2.90
2023-03-02T18:51:33.396Z,-2.80
2023-03-02T18:54:03.155Z,-2.84
2023-03-02T18:56:32.161Z,-2.79
2023-03-02T18:59:00.728Z,-2.88
2023-03-02T19:01:32.302Z,-2.88
2023-03-02T19:04:02.423Z,-2.87
2023-03-02T19:06:30.755Z,-2.83
2023-03-02T19:08:59.423Z,-2.79
2023-03-02T19:11:29.605Z,-2.81
2023-03-02T19:13:58.266Z,-2.81
2023-03-02T19:16:26.827Z,-2.82
2023-03-02T19:18:55.373Z,-2.85
2023-03-02T19:21:24.094Z,-2.86
2023-03-02T19:23:53.056Z,-2.84
2023-03-02T19:26:21.521Z,-2.80
2023-03-02T19:28:51.835Z,-2.77
2023-03-02T19:31:20.505Z,-2.76
2023-03-02T19:33:49.486Z,-2.74
2023-03-02T19:36:17.968Z,-2.80
2023-03-02T19:38:46.509Z,-2.88
2023-03-02T19:41:17.038Z,-2.83
2023-03-02T19:43:47.929Z,-2.88
2023-03-02T19:46:18.559Z,-2.81
2023-03-02T19:48:47.272Z,-2.81
2023-03-02T19:51:15.805Z,-2.82
2023-03-02T19:53:46.136Z,-2.90
2023-03-02T19:56:16.599Z,-2.80
2023-03-02T19:58:50.370Z,-2.80
2023-03-02T20:01:25.124Z,-2.74
2023-03-02T20:03:55.992Z,-2.70
2023-03-02T20:06:26.263Z,-2.78
2023-03-02T20:08:55.127Z,-2.69
2023-03-02T20:11:25.068Z,-2.60
2023-03-02T20:13:53.664Z,-2.66
2023-03-02T20:16:25.278Z,-2.62
2023-03-02T20:18:54.443Z,-2.57
2023-03-02T20:21:26.736Z,-2.61
2023-03-02T20:23:55.748Z,-2.58
2023-03-02T20:26:25.679Z,-2.54
2023-03-02T20:28:55.892Z,-2.58
2023-03-02T20:31:32.221Z,-2.57
2023-03-02T20:34:04.180Z,-2.58
2023-03-02T20:36:35.637Z,-2.63
2023-03-02T20:39:09.391Z,-2.63
2023-03-02T20:41:38.221Z,-2.58
2023-03-02T20:44:07.475Z,-2.53
2023-03-02T20:46:40.199Z,-2.51
2023-03-02T20:49:09.738Z,-2.47
2023-03-02T20:51:40.054Z,-2.48
2023-03-02T20:54:09.110Z,-2.50
2023-03-02T20:56:39.660Z,-2.42
2023-03-02T20:59:08.173Z,-2.34
2023-03-02T21:01:38.400Z,-2.41
2023-03-02T21:04:11.112Z,-2.44
2023-03-02T21:06:52.504Z,-2.42
2023-03-02T21:09:21.530Z,-2.45
2023-03-02T21:11:50.419Z,-2.50
2023-03-02T21:14:19.476Z,-2.44
2023-03-02T21:16:49.476Z,-2.40
2023-03-02T21:19:19.879Z,-2.39
2023-03-02T21:21:49.174Z,-2.42
2023-03-02T21:24:18.317Z,-2.36
2023-03-02T21:26:48.326Z,-2.39
2023-03-02T21:29:18.714Z,-2.44
2023-03-02T21:31:48.990Z,-2.39
2023-03-02T21:34:19.286Z,-2.45
2023-03-02T21:36:48.448Z,-2.49
2023-03-02T21:39:17.568Z,-2.45
2023-03-02T21:41:46.402Z,-2.48
2023-03-02T21:44:15.272Z,-2.48
2023-03-02T21:46:44.047Z,-2.56
2023-03-02T21:49:16.492Z,-2.54
2023-03-02T21:51:45.355Z,-2.62
2023-03-02T21:54:14.199Z,-2.55
2023-03-02T21:56:43.803Z,-2.52
2023-03-02T21:59:12.989Z,-2.52
2023-03-02T22:01:41.661Z,-2.53
2023-03-02T22:04:10.558Z,-2.49
2023-03-02T22:06:42.232Z,-2.54
2023-03-02T22:09:11.490Z,-2.55
2023-03-02T22:11:40.447Z,-2.51
2023-03-02T22:14:13.087Z,-2.62
2023-03-02T22:16:45.185Z,-2.54
2023-03-02T22:19:25.222Z,-2.61
2023-03-02T22:21:56.226Z,-2.58
2023-03-02T22:24:26.863Z,-2.63
2023-03-02T22:27:00.064Z,-2.62
2023-03-02T22:29:30.405Z,-2.65
2023-03-02T22:32:07.485Z,-2.70
2023-03-02T22:34:37.272Z,-2.74
2023-03-02T22:37:14.527Z,-2.78
2023-03-02T22:39:43.091Z,-2.81
2023-03-02T22:42:14.544Z,-2.83
2023-03-02T22:44:43.126Z,-2.84
2023-03-02T22:47:16.781Z,-2.82
2023-03-02T22:49:45.829Z,-2.91
2023-03-02T22:52:18.140Z,-2.98
2023-03-02T22:54:47.861Z,-2.91
2023-03-02T22:57:26.995Z,-2.86
2023-03-02T23:00:21.632Z,-2.80
2023-03-02T23:02:50.619Z,-2.70
2023-03-02T23:05:31.359Z,-2.61
2023-03-02T23:08:19.732Z,-2.65
2023-03-02T23:10:49.034Z,-2.69
2023-03-02T23:13:19.403Z,-2.73
2023-03-02T23:15:50.453Z,-2.64
2023-03-02T23:18:23.490Z,-2.60
2023-03-02T23:20:53.410Z,-2.45
2023-03-02T23:23:24.977Z,-2.47
2023-03-02T23:25:53.452Z,-2.50
2023-03-02T23:28:22.471Z,-2.47
2023-03-02T23:30:51.137Z,-2.53
2023-03-02T23:33:19.638Z,-2.49
2023-03-02T23:35:49.269Z,-2.51
2023-03-02T23:38:17.649Z,-2.45
2023-03-02T23:40:47.625Z,-2.48
2023-03-02T23:43:16.338Z,-2.48
2023-03-02T23:45:45.203Z,-2.45
2023-03-02T23:48:15.521Z,-2.43
2023-03-02T23:50:44.722Z,-2.34
2023-03-02T23:53:13.565Z,-2.31
2023-03-02T23:55:46.604Z,-2.32
2023-03-02T23:58:16.862Z,-2.24
